createdAt,value
2023-01-15T00:02:21.092Z,99539.56
2023-01-15T00:04:51.058Z,99450.59
2023-01-15T00:07:17.795Z,99500.44
2023-01-15T00:09:44.607Z,99390.03
2023-01-15T00:12:11.485Z,99530.75
2023-01-15T00:14:39.219Z,99550.03
2023-01-15T00:17:08.656Z,99587.25
2023-01-15T00:19:37.112Z,99493.22
2023-01-15T00:22:04.167Z,99581.66
2023-01-15T00:24:31.210Z,99508.47
2023-01-15T00:26:58.091Z,99586.75
2023-01-15T00:29:27.937Z,99596.13
2023-01-15T00:31:56.948Z,99492.38
2023-01-15T00:34:24.632Z,99529.94
2023-01-15T00:36:53.246Z,99443.66
2023-01-15T00:39:20.247Z,99516.53
2023-01-15T00:41:47.104Z,99597.72
2023-01-15T00:44:14.041Z,99527.25
2023-01-15T00:46:41.062Z,99578.19
2023-01-15T00:49:08.088Z,99487.06
2023-01-15T00:51:37.162Z,99467.78
2023-01-15T00:54:06.149Z,99595.31
2023-01-15T00:56:32.865Z,99469.38
2023-01-15T00:59:04.304Z,99522.44
2023-01-15T01:01:31.369Z,99599.63
2023-01-15T01:03:58.229Z,99587.25
2023-01-15T01:06:26.473Z,99538.78
2023-01-15T01:08:53.552Z,99508.50
2023-01-15T01:11:23.287Z,99573.59
2023-01-15T01:13:50.136Z,99527.25
2023-01-15T01:16:31.572Z,99585.13
2023-01-15T01:18:59.204Z,99595.63
2023-01-15T01:21:28.503Z,99592.41
2023-01-15T01:23:55.964Z,99401.84
2023-01-15T01:26:24.151Z,99425.94
2023-01-15T01:28:54.833Z,99387.91
2023-01-15T01:31:22.432Z,99578.19
2023-01-15T01:33:49.606Z,99585.69
2023-01-15T01:36:20.149Z,99585.19
2023-01-15T01:38:48.204Z,99516.56
2023-01-15T01:41:15.011Z,99526.22
2023-01-15T01:43:56.300Z,99465.91
2023-01-15T01:46:23.539Z,99443.66
2023-01-15T01:48:53.845Z,99536.38
2023-01-15T01:51:25.146Z,99447.66
2023-01-15T01:53:52.198Z,99613.34
2023-01-15T01:56:22.388Z,99519.53
2023-01-15T01:58:52.856Z,99513.59
2023-01-15T02:01:24.293Z,99531.56
2023-01-15T02:03:52.498Z,99497.78
2023-01-15T02:06:19.526Z,99389.81
2023-01-15T02:08:46.359Z,99420.34
2023-01-15T02:11:19.120Z,99624.38
2023-01-15T02:13:56.725Z,99437.22
2023-01-15T02:16:31.434Z,99601.81
2023-01-15T02:19:05.567Z,99410.69
2023-01-15T02:21:48.014Z,99399.16
2023-01-15T02:24:22.657Z,99414.97
2023-01-15T02:27:07.763Z,99525.97
2023-01-15T02:29:44.526Z,99425.41
2023-01-15T02:32:17.774Z,99416.31
2023-01-15T02:34:53.057Z,99452.19
2023-01-15T02:37:25.979Z,99516.84
2023-01-15T02:39:55.150Z,99584.94
2023-01-15T02:42:27.736Z,99461.34
2023-01-15T02:44:58.773Z,99579.28
2023-01-15T02:47:29.461Z,99599.69
2023-01-15T02:49:59.697Z,99461.84
2023-01-15T02:52:30.076Z,99412.00
2023-01-15T02:55:01.133Z,99568.03
2023-01-15T02:57:33.540Z,99461.59
2023-01-15T03:00:07.058Z,99504.75
2023-01-15T03:02:40.128Z,99436.41
2023-01-15T03:05:11.369Z,99455.97
2023-01-15T03:07:42.943Z,99409.06
2023-01-15T03:10:11.301Z,99491.09
2023-01-15T03:12:45.482Z,99460.53
2023-01-15T03:15:20.021Z,99577.94
2023-01-15T03:17:53.992Z,99558.09
2023-01-15T03:20:25.398Z,99428.38
2023-01-15T03:22:53.812Z,99577.41
2023-01-15T03:25:23.771Z,99566.66
2023-01-15T03:27:54.594Z,99422.72
2023-01-15T03:30:22.602Z,99556.75
2023-01-15T03:32:49.785Z,99411.25
2023-01-15T03:35:46.750Z,99568.03
2023-01-15T03:38:15.994Z,99552.19
2023-01-15T03:40:49.739Z,99481.19
2023-01-15T03:43:21.221Z,99406.13
2023-01-15T03:45:50.781Z,99389.00
2023-01-15T03:48:24.023Z,99507.19
2023-01-15T03:50:57.797Z,99371.31
2023-01-15T03:53:30.561Z,99343.97
2023-01-15T03:56:05.796Z,99427.56
2023-01-15T03:58:42.099Z,99560.00
2023-01-15T04:01:12.067Z,99464.78
2023-01-15T04:03:39.779Z,99542.56
2023-01-15T04:06:07.900Z,99557.03
2023-01-15T04:08:39.536Z,99382.56
2023-01-15T04:11:09.098Z,99343.19
2023-01-15T04:13:37.520Z,99445.78
2023-01-15T04:16:05.479Z,99468.28
2023-01-15T04:18:32.363Z,99494.31
2023-01-15T04:20:59.139Z,99415.25
2023-01-15T04:23:25.853Z,99434.00
2023-01-15T04:25:52.775Z,99466.41
2023-01-15T04:28:21.900Z,99512.81
2023-01-15T04:30:50.372Z,99347.75
2023-01-15T04:33:17.276Z,99542.84
2023-01-15T04:35:44.084Z,99503.69
2023-01-15T04:38:10.871Z,99415.25
2023-01-15T04:40:37.749Z,99453.56
2023-01-15T04:43:05.825Z,99315.34
2023-01-15T04:45:34.073Z,99413.09
2023-01-15T04:48:04.104Z,99528.34
2023-01-15T04:50:35.094Z,99412.00
2023-01-15T04:53:04.790Z,99484.66
2023-01-15T04:55:33.363Z,99399.69
2023-01-15T04:58:00.108Z,99491.34
2023-01-15T05:00:26.826Z,99528.34
2023-01-15T05:02:53.576Z,99515.50
2023-01-15T05:05:21.860Z,99518.19
2023-01-15T05:07:48.652Z,99517.91
2023-01-15T05:10:18.385Z,99546.88
2023-01-15T05:12:45.184Z,99421.66
2023-01-15T05:15:23.223Z,99502.88
2023-01-15T05:17:50.218Z,99433.19
2023-01-15T05:20:17.365Z,99433.75
2023-01-15T05:22:45.727Z,99369.16
2023-01-15T05:25:12.969Z,99411.75
2023-01-15T05:27:39.721Z,99515.47
2023-01-15T05:30:11.475Z,99315.59
2023-01-15T05:32:41.067Z,99460.78
2023-01-15T05:35:09.132Z,99448.47
2023-01-15T05:37:35.918Z,99491.91
2023-01-15T05:40:04.983Z,99490.81
2023-01-15T05:42:39.475Z,99447.94
2023-01-15T05:45:07.460Z,99300.84
2023-01-15T05:47:34.205Z,99395.41
2023-01-15T05:50:01.058Z,99511.47
2023-01-15T05:52:27.805Z,99326.53
2023-01-15T05:54:54.731Z,99348.22
2023-01-15T05:57:22.967Z,99313.13
2023-01-15T05:59:49.750Z,99473.13
2023-01-15T06:02:17.621Z,99381.44
2023-01-15T06:04:44.472Z,99418.44
2023-01-15T06:07:11.293Z,99469.09
2023-01-15T06:09:37.991Z,99415.22
2023-01-15T06:12:05.609Z,99382.53
2023-01-15T06:14:34.108Z,99405.84
2023-01-15T06:17:03.869Z,99365.38
2023-01-15T06:19:30.981Z,99346.38
2023-01-15T06:21:58.293Z,99358.97
2023-01-15T06:24:27.635Z,99410.66
2023-01-15T06:26:56.870Z,99496.19
2023-01-15T06:29:23.691Z,99265.97
2023-01-15T06:31:51.959Z,99406.09
2023-01-15T06:34:21.855Z,99438.28
2023-01-15T06:36:48.811Z,99494.56
2023-01-15T06:39:15.619Z,99323.63
2023-01-15T06:41:42.611Z,99441.50
2023-01-15T06:44:14.664Z,99388.97
2023-01-15T06:46:45.199Z,99390.84
2023-01-15T06:49:13.470Z,99219.72
2023-01-15T06:51:40.460Z,99396.47
2023-01-15T06:54:07.267Z,99348.53
2023-01-15T06:56:34.090Z,99349.56
2023-01-15T06:59:05.195Z,99479.00
2023-01-15T07:01:34.635Z,99330.78
2023-01-15T07:04:01.672Z,99455.41
2023-01-15T07:06:36.685Z,99382.50
2023-01-15T07:09:07.925Z,99396.44
2023-01-15T07:11:34.730Z,99396.16
2023-01-15T07:14:01.619Z,99451.13
2023-01-15T07:16:28.400Z,99466.69
2023-01-15T07:18:58.036Z,99317.69
2023-01-15T07:21:26.795Z,99439.34
2023-01-15T07:23:59.445Z,99384.13
2023-01-15T07:26:26.897Z,99467.75
2023-01-15T07:28:53.872Z,99480.09
2023-01-15T07:31:21.006Z,99370.22
2023-01-15T07:33:48.179Z,99388.97
2023-01-15T07:36:15.153Z,99375.03
2023-01-15T07:38:41.977Z,99324.66
2023-01-15T07:41:10.286Z,99262.50
2023-01-15T07:43:37.072Z,99455.44
2023-01-15T07:46:03.809Z,99398.63
2023-01-15T07:48:30.789Z,99293.03
2023-01-15T07:50:57.584Z,99433.72
2023-01-15T07:53:24.476Z,99460.25
2023-01-15T07:55:51.624Z,99273.81
2023-01-15T07:58:19.862Z,99366.47
2023-01-15T08:00:46.672Z,99463.22
2023-01-15T08:03:13.668Z,99354.16
2023-01-15T08:05:43.247Z,99376.66
2023-01-15T08:08:15.054Z,99341.28
2023-01-15T08:10:41.961Z,99392.19
2023-01-15T08:13:09.130Z,99442.59
2023-01-15T08:15:41.159Z,99437.22
2023-01-15T08:18:07.982Z,99420.06
2023-01-15T08:20:35.449Z,99429.19
2023-01-15T08:23:02.315Z,99413.63
2023-01-15T08:25:30.036Z,99381.47
2023-01-15T08:28:01.581Z,99446.59
2023-01-15T08:30:28.650Z,99444.16
2023-01-15T08:33:01.538Z,99456.25
2023-01-15T08:35:28.276Z,99368.88
2023-01-15T08:37:54.892Z,99478.47
2023-01-15T08:40:21.729Z,99447.38
2023-01-15T08:42:48.650Z,99380.31
2023-01-15T08:45:15.552Z,99445.72
2023-01-15T08:47:42.280Z,99348.06
2023-01-15T08:50:12.315Z,99354.00
2023-01-15T08:52:39.199Z,99440.59
2023-01-15T08:55:08.239Z,99291.25
2023-01-15T08:57:35.725Z,99419.34
2023-01-15T09:00:02.471Z,99461.47
2023-01-15T09:02:29.264Z,99245.72
2023-01-15T09:04:56.117Z,99441.41
2023-01-15T09:07:24.343Z,99417.56
2023-01-15T09:09:51.372Z,99235.38
2023-01-15T09:12:18.297Z,99443.59
2023-01-15T09:14:56.941Z,99440.94
2023-01-15T09:17:29.123Z,99391.38
2023-01-15T09:19:55.871Z,99447.38
2023-01-15T09:22:24.094Z,99294.97
2023-01-15T09:24:51.012Z,99430.25
2023-01-15T09:27:17.776Z,99439.34
2023-01-15T09:29:44.598Z,99251.59
2023-01-15T09:32:11.580Z,99387.38
2023-01-15T09:34:38.611Z,99250.28
2023-01-15T09:37:05.391Z,99247.34
2023-01-15T09:39:33.647Z,99425.41
2023-01-15T09:42:24.501Z,99359.25
2023-01-15T09:45:17.263Z,99449.25
2023-01-15T09:47:57.289Z,99229.97
2023-01-15T09:50:32.394Z,99413.06
2023-01-15T09:53:14.107Z,99336.22
2023-01-15T09:55:48.945Z,99433.41
2023-01-15T09:58:26.775Z,99427.25
2023-01-15T10:00:53.697Z,99358.69
2023-01-15T10:03:34.043Z,99278.13
2023-01-15T10:06:09.797Z,99365.34
2023-01-15T10:08:40.947Z,99250.25
2023-01-15T10:11:26.547Z,99294.41
2023-01-15T10:14:02.884Z,99216.47
2023-01-15T10:16:33.265Z,99386.41
2023-01-15T10:19:02.398Z,99412.09
2023-01-15T10:21:36.654Z,99300.44
2023-01-15T10:24:11.594Z,99396.75
2023-01-15T10:26:45.906Z,99435.34
2023-01-15T10:29:19.723Z,99391.44
2023-01-15T10:31:51.928Z,99289.75
2023-01-15T10:34:42.269Z,99428.66
2023-01-15T10:37:15.126Z,99394.66
2023-01-15T10:39:53.544Z,99403.72
2023-01-15T10:42:37.571Z,99374.28
2023-01-15T10:45:11.626Z,99400.47
2023-01-15T10:47:42.515Z,99406.41
2023-01-15T10:50:22.394Z,99387.69
2023-01-15T10:53:25.882Z,99414.06
2023-01-15T10:56:03.277Z,99261.09
2023-01-15T10:58:47.381Z,99354.84
2023-01-15T11:01:20.133Z,99220.59
2023-01-15T11:03:47.509Z,99385.63
2023-01-15T11:06:16.062Z,99360.06
2023-01-15T11:09:08.770Z,99320.66
2023-01-15T11:11:40.877Z,99260.09
2023-01-15T11:14:09.374Z,99385.25
2023-01-15T11:16:44.063Z,99329.94
2023-01-15T11:19:25.692Z,99404.75
2023-01-15T11:21:52.996Z,99418.94
2023-01-15T11:24:20.053Z,99383.66
2023-01-15T11:26:57.913Z,99362.22
2023-01-15T11:29:32.246Z,99361.09
2023-01-15T11:32:01.647Z,99389.28
2023-01-15T11:34:28.542Z,99323.38
2023-01-15T11:37:02.842Z,99253.69
2023-01-15T11:39:33.658Z,99287.38
2023-01-15T11:42:02.313Z,99242.53
2023-01-15T11:44:33.499Z,99445.78
2023-01-15T11:47:01.079Z,99225.63
2023-01-15T11:49:27.898Z,99268.72
2023-01-15T11:51:57.672Z,99396.44
2023-01-15T11:54:27.129Z,99413.56
2023-01-15T11:56:55.033Z,99269.69
2023-01-15T11:59:22.495Z,99210.53
2023-01-15T12:01:53.487Z,99286.13
2023-01-15T12:04:29.537Z,99382.06
2023-01-15T12:06:59.617Z,99369.44
2023-01-15T12:09:38.020Z,99334.50
2023-01-15T12:12:15.945Z,99337.16
2023-01-15T12:15:06.166Z,99465.06
2023-01-15T12:17:55.054Z,99441.13
2023-01-15T12:20:26.857Z,99464.28
2023-01-15T12:23:10.658Z,99475.31
2023-01-15T12:25:56.411Z,99483.09
2023-01-15T12:28:28.339Z,99461.78
2023-01-15T12:31:02.255Z,99478.19
2023-01-15T12:33:41.441Z,99503.16
2023-01-15T12:36:13.756Z,99494.56
2023-01-15T12:38:54.271Z,99463.22
2023-01-15T12:41:26.514Z,99476.88
2023-01-15T12:43:57.135Z,99433.72
2023-01-15T12:46:28.705Z,99404.22
2023-01-15T12:49:02.101Z,99479.00
2023-01-15T12:51:34.488Z,99479.53
2023-01-15T12:54:06.635Z,99412.25
2023-01-15T12:56:42.503Z,99442.56
2023-01-15T12:59:18.340Z,99410.13
2023-01-15T13:01:53.767Z,99339.03
2023-01-15T13:04:28.319Z,99453.53
2023-01-15T13:07:01.735Z,99360.00
2023-01-15T13:09:37.636Z,99361.09
2023-01-15T13:12:11.975Z,99473.38
2023-01-15T13:14:38.808Z,99482.47
2023-01-15T13:17:14.237Z,99483.28
2023-01-15T13:19:57.126Z,99476.84
2023-01-15T13:22:27.771Z,99483.59
2023-01-15T13:25:08.016Z,99395.63
2023-01-15T13:27:51.418Z,99485.16
2023-01-15T13:30:32.871Z,99420.56
2023-01-15T13:33:17.178Z,99502.59
2023-01-15T13:35:50.566Z,99311.81
2023-01-15T13:38:21.289Z,99416.28
2023-01-15T13:40:50.949Z,99472.06
2023-01-15T13:43:30.166Z,99348.25
2023-01-15T13:45:58.046Z,99376.09
2023-01-15T13:48:32.550Z,99532.66
2023-01-15T13:51:02.775Z,99526.75
2023-01-15T13:53:32.348Z,99454.38
2023-01-15T13:56:01.814Z,99527.84
2023-01-15T13:58:30.524Z,99525.16
2023-01-15T14:01:09.295Z,99509.03
2023-01-15T14:03:37.982Z,99444.72
2023-01-15T14:06:08.774Z,99513.63
2023-01-15T14:08:41.071Z,99372.91
2023-01-15T14:11:35.851Z,99473.13
2023-01-15T14:14:43.719Z,99451.69
2023-01-15T14:17:44.316Z,99392.16
2023-01-15T14:20:26.395Z,99577.72
2023-01-15T14:23:12.739Z,99514.69
2023-01-15T14:25:51.621Z,99530.25
2023-01-15T14:28:31.228Z,99497.25
2023-01-15T14:31:30.659Z,99548.72
2023-01-15T14:34:14.136Z,99401.28
2023-01-15T14:36:49.588Z,99483.31
2023-01-15T14:39:39.280Z,99570.41
2023-01-15T14:42:11.032Z,99584.63
2023-01-15T14:44:41.730Z,99370.25
2023-01-15T14:47:24.201Z,99465.34
2023-01-15T14:50:01.754Z,99586.25
2023-01-15T14:52:28.962Z,99466.69
2023-01-15T14:55:00.822Z,99453.31
2023-01-15T14:57:27.897Z,99539.06
2023-01-15T14:59:58.572Z,99603.97
2023-01-15T15:02:32.984Z,99636.16
2023-01-15T15:05:01.403Z,99630.25
2023-01-15T15:07:35.278Z,99629.19
2023-01-15T15:10:05.611Z,99643.16
2023-01-15T15:12:39.162Z,99648.53
2023-01-15T15:15:13.658Z,99645.56
2023-01-15T15:17:49.503Z,99561.09
2023-01-15T15:20:26.875Z,99513.03
2023-01-15T15:23:06.773Z,99515.47
2023-01-15T15:25:39.757Z,99542.28
2023-01-15T15:28:12.468Z,99562.16
2023-01-15T15:30:45.459Z,99481.16
2023-01-15T15:33:23.885Z,99677.50
2023-01-15T15:35:56.742Z,99699.81
2023-01-15T15:38:28.259Z,99443.63
2023-01-15T15:41:00.118Z,99541.22
2023-01-15T15:43:41.617Z,99560.78
2023-01-15T15:46:22.471Z,99681.81
2023-01-15T15:48:59.022Z,99585.19
2023-01-15T15:51:33.174Z,99476.28
2023-01-15T15:54:19.160Z,99553.78
2023-01-15T15:56:59.059Z,99661.69
2023-01-15T15:59:32.738Z,99620.03
2023-01-15T16:02:07.938Z,99516.19
2023-01-15T16:04:35.020Z,99515.91
2023-01-15T16:07:12.495Z,99525.56
2023-01-15T16:09:48.234Z,99721.81
2023-01-15T16:12:19.852Z,99592.66
2023-01-15T16:14:49.064Z,99702.47
2023-01-15T16:17:19.163Z,99701.59
2023-01-15T16:19:48.753Z,99615.16
2023-01-15T16:22:27.353Z,99752.66
2023-01-15T16:24:57.425Z,99551.25
2023-01-15T16:27:33.028Z,99613.53
2023-01-15T16:30:00.076Z,99625.34
2023-01-15T16:32:29.778Z,99716.69
2023-01-15T16:35:06.193Z,99665.88
2023-01-15T16:37:37.394Z,99721.78
2023-01-15T16:40:06.559Z,99731.44
2023-01-15T16:42:36.767Z,99744.59
2023-01-15T16:45:07.453Z,99752.09
2023-01-15T16:47:36.861Z,99626.94
2023-01-15T16:50:28.155Z,99739.75
2023-01-15T16:52:56.243Z,99727.63
2023-01-15T16:55:39.706Z,99751.56
2023-01-15T16:58:21.120Z,99747.25
2023-01-15T17:00:48.963Z,99753.16
2023-01-15T17:03:17.976Z,99706.31
2023-01-15T17:05:45.188Z,99740.25
2023-01-15T17:08:17.798Z,99763.09
2023-01-15T17:10:53.758Z,99768.22
2023-01-15T17:13:25.429Z,99705.31
2023-01-15T17:16:14.575Z,99762.84
2023-01-15T17:18:42.072Z,99581.78
2023-01-15T17:21:16.358Z,99675.25
2023-01-15T17:23:44.052Z,99625.25
2023-01-15T17:26:17.419Z,99649.72
2023-01-15T17:28:46.131Z,99683.31
2023-01-15T17:31:23.214Z,99733.81
2023-01-15T17:33:50.740Z,99793.72
2023-01-15T17:36:17.815Z,99624.19
2023-01-15T17:38:44.637Z,99731.69
2023-01-15T17:41:12.762Z,99683.56
2023-01-15T17:43:39.912Z,99670.91
2023-01-15T17:46:08.117Z,99576.50
2023-01-15T17:48:40.833Z,99747.53
2023-01-15T17:51:12.187Z,99688.94
2023-01-15T17:53:38.792Z,99789.72
2023-01-15T17:56:06.519Z,99610.78
2023-01-15T17:58:33.288Z,99631.97
2023-01-15T18:01:02.164Z,99735.44
2023-01-15T18:03:30.656Z,99644.03
2023-01-15T18:06:03.216Z,99796.41
2023-01-15T18:08:33.886Z,99687.31
2023-01-15T18:11:00.771Z,99700.16
2023-01-15T18:13:27.796Z,99675.75
2023-01-15T18:15:54.917Z,99688.63
2023-01-15T18:18:21.634Z,99683.78
2023-01-15T18:20:52.594Z,99729.19
2023-01-15T18:23:19.493Z,99776.72
2023-01-15T18:25:46.333Z,99668.13
2023-01-15T18:28:13.297Z,99732.16
2023-01-15T18:30:41.727Z,99830.47
2023-01-15T18:33:08.687Z,99709.44
2023-01-15T18:35:38.637Z,99798.72
2023-01-15T18:38:06.930Z,99792.31
2023-01-15T18:40:33.972Z,99826.16
2023-01-15T18:43:01.185Z,99725.84
2023-01-15T18:45:28.137Z,99653.53
2023-01-15T18:47:55.026Z,99757.31
2023-01-15T18:50:21.946Z,99637.97
2023-01-15T18:52:51.260Z,99835.56
2023-01-15T18:55:23.922Z,99830.47
2023-01-15T18:57:50.888Z,99682.53
2023-01-15T19:00:18.473Z,99821.00
2023-01-15T19:02:48.547Z,99700.03
2023-01-15T19:05:16.021Z,99701.94
2023-01-15T19:07:43.540Z,99680.38
2023-01-15T19:10:11.610Z,99710.25
2023-01-15T19:12:39.952Z,99825.31
2023-01-15T19:15:08.260Z,99825.63
2023-01-15T19:17:34.941Z,99802.50
2023-01-15T19:20:01.888Z,99792.81
2023-01-15T19:22:28.659Z,99821.31
2023-01-15T19:24:55.413Z,99761.09
2023-01-15T19:27:24.619Z,99819.97
2023-01-15T19:29:53.033Z,99621.13
2023-01-15T19:32:22.685Z,99784.44
2023-01-15T19:34:49.617Z,99808.69
2023-01-15T19:37:16.421Z,99717.53
2023-01-15T19:39:43.167Z,99832.84
2023-01-15T19:42:16.516Z,99717.19
2023-01-15T19:44:49.207Z,99809.47
2023-01-15T19:47:24.719Z,99774.47
2023-01-15T19:49:51.635Z,99680.63
2023-01-15T19:52:18.866Z,99802.69
2023-01-15T19:54:45.707Z,99799.19
2023-01-15T19:57:12.359Z,99612.16
2023-01-15T19:59:39.241Z,99814.00
2023-01-15T20:02:06.339Z,99635.19
2023-01-15T20:04:37.557Z,99699.22
2023-01-15T20:07:05.568Z,99619.16
2023-01-15T20:09:32.417Z,99697.09
2023-01-15T20:11:59.651Z,99693.28
2023-01-15T20:14:29.336Z,99756.50
2023-01-15T20:16:56.067Z,99622.91
2023-01-15T20:19:22.840Z,99833.38
2023-01-15T20:21:50.937Z,99789.31
2023-01-15T20:24:20.150Z,99813.47
2023-01-15T20:26:48.037Z,99620.47
2023-01-15T20:29:16.975Z,99710.00
2023-01-15T20:31:44.070Z,99830.97
2023-01-15T20:34:10.822Z,99828.03
2023-01-15T20:36:37.675Z,99830.72
2023-01-15T20:39:17.890Z,99622.38
2023-01-15T20:41:44.799Z,99622.16
2023-01-15T20:44:11.852Z,99702.47
2023-01-15T20:46:40.748Z,99621.34
2023-01-15T20:49:07.544Z,99810.53
2023-01-15T20:51:34.341Z,99721.75
2023-01-15T20:54:01.083Z,99813.75
2023-01-15T20:56:29.214Z,99815.34
2023-01-15T20:58:56.075Z,99809.94
2023-01-15T21:01:23.099Z,99606.94
2023-01-15T21:03:50.318Z,99795.91
2023-01-15T21:06:19.820Z,99802.09
2023-01-15T21:08:46.534Z,99811.25
2023-01-15T21:11:13.244Z,99727.00
2023-01-15T21:13:41.824Z,99724.38
2023-01-15T21:16:09.786Z,99776.53
2023-01-15T21:18:36.748Z,99691.53
2023-01-15T21:21:08.572Z,99810.34
2023-01-15T21:23:35.566Z,99672.09
2023-01-15T21:26:02.430Z,99646.75
2023-01-15T21:28:29.387Z,99792.31
2023-01-15T21:30:57.939Z,99797.94
2023-01-15T21:33:24.695Z,99698.50
2023-01-15T21:35:53.733Z,99726.94
2023-01-15T21:38:20.698Z,99781.03
2023-01-15T21:40:47.367Z,99677.44
2023-01-15T21:43:14.160Z,99658.19
2023-01-15T21:45:41.015Z,99784.22
2023-01-15T21:48:09.371Z,99756.47
2023-01-15T21:50:36.405Z,99783.41
2023-01-15T21:53:04.811Z,99779.69
2023-01-15T21:55:33.893Z,99776.75
2023-01-15T21:58:00.954Z,99738.81
2023-01-15T22:00:27.788Z,99779.16
2023-01-15T22:02:54.666Z,99559.03
2023-01-15T22:05:22.848Z,99707.16
2023-01-15T22:07:51.649Z,99726.47
2023-01-15T22:10:18.547Z,99675.09
2023-01-15T22:12:45.347Z,99696.44
2023-01-15T22:15:12.359Z,99637.28
2023-01-15T22:17:39.187Z,99770.59
2023-01-15T22:20:09.290Z,99723.28
2023-01-15T22:22:41.295Z,99731.28
2023-01-15T22:25:08.734Z,99753.94
2023-01-15T22:27:41.131Z,99672.53
2023-01-15T22:30:13.537Z,99645.09
2023-01-15T22:32:40.290Z,99575.03
2023-01-15T22:35:08.094Z,99724.41
2023-01-15T22:37:34.939Z,99733.31
2023-01-15T22:40:03.823Z,99715.06
2023-01-15T22:42:30.604Z,99739.47
2023-01-15T22:44:57.432Z,99754.50
2023-01-15T22:47:24.438Z,99630.69
2023-01-15T22:49:53.012Z,99728.75
2023-01-15T22:52:19.843Z,99719.66
2023-01-15T22:54:47.296Z,99663.25
2023-01-15T22:57:15.407Z,99699.25
2023-01-15T22:59:44.296Z,99580.75
2023-01-15T23:02:11.960Z,99703.59
2023-01-15T23:04:41.896Z,99708.97
2023-01-15T23:07:09.009Z,99695.56
2023-01-15T23:09:35.997Z,99689.66
2023-01-15T23:12:02.860Z,99645.88
2023-01-15T23:14:30.908Z,99516.19
2023-01-15T23:16:57.978Z,99559.94
2023-01-15T23:19:24.755Z,99649.41
2023-01-15T23:21:53.678Z,99669.25
2023-01-15T23:24:20.449Z,99659.59
2023-01-15T23:26:47.123Z,99546.81
2023-01-15T23:29:13.847Z,99545.69
2023-01-15T23:31:45.122Z,99468.41
2023-01-15T23:34:12.363Z,99615.00
2023-01-15T23:36:39.650Z,99536.03
2023-01-15T23:39:06.327Z,99626.84
2023-01-15T23:41:33.104Z,99638.16
2023-01-15T23:44:00.213Z,99624.69
2023-01-15T23:46:28.008Z,99633.31
2023-01-15T23:48:56.123Z,99618.28
2023-01-15T23:51:25.239Z,99514.44
2023-01-15T23:53:52.416Z,99625.81
2023-01-15T23:56:19.257Z,99547.41
2023-01-15T23:58:45.978Z,99465.06
